Time;durP1;ratioP1;P1;durP2;ratioP2;P2;SDS_P1;SDS_P2;PMS_P1;PMS_P2;Temp;Humidity;BMP_temperature;BMP_pressure;BME280_temperature;BME280_humidity;BME280_pressure;Samples;Min_cycle;Max_cycle;Signal;HPM_P1;HPM_P2
2021/04/12 00:01:54;;;;;;;9.63;4.57;;;;;;;;;;5071750;28;20116;-65
2021/04/12 00:04:38;;;;;;;5.32;4.72;;;;;;;;;;5075259;28;20025;-64
2021/04/12 00:07:14;;;;;;;4.97;4.55;;;;;;;;;;5073132;28;20041;-64
2021/04/12 00:09:45;;;;;;;7.45;5.78;;;;;;;;;;5075198;28;20035;-64
2021/04/12 00:12:20;;;;;;;7.53;5.82;;;;;;;;;;5075465;28;20028;-64
2021/04/12 00:14:48;;;;;;;7.57;5.70;;;;;;;;;;5074945;28;20107;-64
2021/04/12 00:17:20;;;;;;;15.35;5.85;;;;;;;;;;5074578;28;20141;-64
2021/04/12 00:19:45;;;;;;;12.40;5.68;;;;;;;;;;5075796;28;20044;-64
2021/04/12 00:22:14;;;;;;;13.38;5.20;;;;;;;;;;5075800;28;20020;-64
2021/04/12 00:24:58;;;;;;;10.90;4.75;;;;;;;;;;5074837;28;20021;-64
2021/04/12 00:27:35;;;;;;;5.43;3.88;;;;;;;;;;5074475;28;20028;-64
2021/04/12 00:30:15;;;;;;;5.68;3.95;;;;;;;;;;5076039;28;20024;-64
2021/04/12 00:32:44;;;;;;;7.25;4.90;;;;;;;;;;5074947;28;20047;-64
2021/04/12 00:35:10;;;;;;;11.48;5.10;;;;;;;;;;5075874;28;20055;-64
2021/04/12 00:37:53;;;;;;;6.05;3.88;;;;;;;;;;5074314;28;20056;-65
2021/04/12 00:40:21;;;;;;;7.13;4.22;;;;;;;;;;5069660;28;20029;-64
2021/04/12 00:42:57;;;;;;;4.60;2.88;;;;;;;;;;5075568;28;20033;-64
2021/04/12 00:45:52;;;;;;;4.38;3.20;;;;;;;;;;5074330;28;20103;-64
2021/04/12 00:48:35;;;;;;;3.38;2.47;;;;;;;;;;5060681;28;20720;-65
2021/04/12 00:51:03;;;;;;;3.75;3.13;;;;;;;;;;5076465;28;20455;-65
2021/04/12 00:53:32;;;;;;;3.80;3.05;;;;;;;;;;5074115;28;20028;-65
2021/04/12 00:56:01;;;;;;;10.02;3.58;;;;;;;;;;5072711;28;20052;-64
2021/04/12 00:58:49;;;;;;;7.10;3.65;;;;;;;;;;5073872;28;20029;-60
2021/04/12 01:01:32;;;;;;;9.80;4.65;;;;;;;;;;5072785;28;20386;-61
2021/04/12 01:04:16;;;;;;;3.15;2.85;;;;;;;;;;5073581;28;20017;-61
2021/04/12 01:07:01;;;;;;;5.85;3.33;;;;;;;;;;5074994;28;20028;-60
2021/04/12 01:09:29;;;;;;;11.23;4.53;;;;;;;;;;5075446;28;20479;-61
2021/04/12 01:12:10;;;;;;;7.28;3.58;;;;;;;;;;5076028;28;20425;-61
2021/04/12 01:15:02;;;;;;;3.92;2.95;;;;;;;;;;5078265;28;20025;-61
2021/04/12 01:17:42;;;;;;;14.35;2.92;;;;;;;;;;5074964;28;20080;-61
2021/04/12 01:20:26;;;;;;;6.70;3.85;;;;;;;;;;5075001;28;20024;-61
2021/04/12 01:23:11;;;;;;;4.13;2.35;;;;;;;;;;5078471;28;20023;-61
2021/04/12 01:25:55;;;;;;;8.77;3.00;;;;;;;;;;5076428;28;20362;-61
2021/04/12 01:28:39;;;;;;;4.47;2.33;;;;;;;;;;5075579;28;20387;-61
2021/04/12 01:31:13;;;;;;;4.50;1.50;;;;;;;;;;5071606;28;20067;-59
2021/04/12 01:33:38;;;;;;;4.85;2.03;;;;;;;;;;5075773;28;20070;-58
2021/04/12 01:36:22;;;;;;;5.25;1.50;;;;;;;;;;5079210;28;20028;-58
2021/04/12 01:39:02;;;;;;;8.75;2.28;;;;;;;;;;5077931;28;20078;-58
2021/04/12 01:41:37;;;;;;;3.72;1.58;;;;;;;;;;5077006;28;20028;-58
2021/04/12 01:44:21;;;;;;;1.45;0.63;;;;;;;;;;5078598;28;20020;-58
2021/04/12 01:47:04;;;;;;;1.30;0.60;;;;;;;;;;5078262;28;20048;-58
2021/04/12 01:49:33;;;;;;;5.47;1.60;;;;;;;;;;5076317;28;20031;-58
2021/04/12 01:52:17;;;;;;;6.38;1.00;;;;;;;;;;5076600;28;20027;-58
2021/04/12 01:54:51;;;;;;;3.97;0.93;;;;;;;;;;5074965;28;20035;-59
2021/04/12 01:57:24;;;;;;;6.72;1.88;;;;;;;;;;5073155;28;20624;-58
2021/04/12 01:59:49;;;;;;;8.85;1.23;;;;;;;;;;5078051;28;20016;-58
2021/04/12 02:02:33;;;;;;;8.35;1.60;;;;;;;;;;5076583;28;20036;-58
2021/04/12 02:05:17;;;;;;;4.50;1.35;;;;;;;;;;5078300;28;20429;-58
2021/04/12 02:08:01;;;;;;;7.45;1.15;;;;;;;;;;5073377;28;20024;-58
2021/04/12 02:10:38;;;;;;;2.00;0.85;;;;;;;;;;5076245;28;20104;-60
2021/04/12 02:13:10;;;;;;;3.08;1.40;;;;;;;;;;5074278;28;20445;-59
2021/04/12 02:15:35;;;;;;;;;;;;;;;;;;5076546;28;20024;-58
2021/04/12 02:18:25;;;;;;;5.67;2.10;;;;;;;;;;5077920;28;19927;-58
2021/04/12 02:21:20;;;;;;;2.92;1.50;;;;;;;;;;5077795;28;20276;-58
2021/04/12 02:24:04;;;;;;;5.63;1.05;;;;;;;;;;5000754;28;20046;-58
2021/04/12 02:26:37;;;;;;;4.00;1.70;;;;;;;;;;5073281;28;20100;-59
2021/04/12 02:29:17;;;;;;;3.00;1.25;;;;;;;;;;5075121;28;20391;-61
2021/04/12 02:32:01;;;;;;;3.88;1.58;;;;;;;;;;5076261;28;20540;-61
2021/04/12 02:34:39;;;;;;;5.20;2.25;;;;;;;;;;5075399;28;20075;-61
2021/04/12 02:37:23;;;;;;;5.63;1.30;;;;;;;;;;5073748;28;20036;-61
2021/04/12 02:39:56;;;;;;;3.70;1.48;;;;;;;;;;5076999;28;20032;-61
2021/04/12 02:42:37;;;;;;;3.28;1.10;;;;;;;;;;5075487;28;20379;-61
2021/04/12 02:45:34;;;;;;;2.30;0.95;;;;;;;;;;5077715;28;20059;-65
2021/04/12 02:48:06;;;;;;;9.90;0.93;;;;;;;;;;5037094;28;20056;-65
2021/04/12 02:50:55;;;;;;;2.03;1.42;;;;;;;;;;5075591;28;20052;-65
2021/04/12 02:53:20;;;;;;;3.60;0.98;;;;;;;;;;5067008;28;20115;-65
2021/04/12 02:55:45;;;;;;;4.82;2.55;;;;;;;;;;5076247;28;20124;-65
2021/04/12 02:58:29;;;;;;;5.20;1.25;;;;;;;;;;5075827;28;20471;-65
2021/04/12 03:01:13;;;;;;;7.65;2.22;;;;;;;;;;5074411;28;20028;-65
2021/04/12 03:03:53;;;;;;;5.65;1.55;;;;;;;;;;5074959;28;20479;-65
2021/04/12 03:06:45;;;;;;;3.45;0.98;;;;;;;;;;5075586;28;20035;-64
2021/04/12 03:09:25;;;;;;;1.75;1.10;;;;;;;;;;5071509;28;20028;-65
2021/04/12 03:12:05;;;;;;;3.88;1.15;;;;;;;;;;5075308;28;20029;-64
2021/04/12 03:14:54;;;;;;;8.23;2.47;;;;;;;;;;5075052;28;20077;-66
2021/04/12 03:17:22;;;;;;;3.55;2.20;;;;;;;;;;5066603;28;20054;-65
2021/04/12 03:19:57;;;;;;;2.80;1.00;;;;;;;;;;5075825;28;20024;-64
2021/04/12 03:22:27;;;;;;;1.85;0.80;;;;;;;;;;5074904;28;20071;-65
2021/04/12 03:25:01;;;;;;;2.80;1.07;;;;;;;;;;5077141;28;20528;-64
2021/04/12 03:27:26;;;;;;;7.70;1.08;;;;;;;;;;5074769;28;20430;-64
2021/04/12 03:30:10;;;;;;;3.55;1.27;;;;;;;;;;5076743;28;20032;-64
2021/04/12 03:32:54;;;;;;;3.08;1.67;;;;;;;;;;5074801;28;20033;-64
2021/04/12 03:35:38;;;;;;;5.25;1.60;;;;;;;;;;5072614;28;20031;-64
2021/04/12 03:38:21;;;;;;;2.17;0.65;;;;;;;;;;5076973;28;20032;-65
2021/04/12 03:40:55;;;;;;;4.50;1.65;;;;;;;;;;5075714;28;20387;-64
2021/04/12 03:43:25;;;;;;;1.63;1.10;;;;;;;;;;5074837;28;20021;-64
2021/04/12 03:46:09;;;;;;;5.13;1.15;;;;;;;;;;5075114;28;20103;-65
2021/04/12 03:48:53;;;;;;;2.95;0.93;;;;;;;;;;5074473;28;20108;-65
2021/04/12 03:51:37;;;;;;;6.97;1.33;;;;;;;;;;5074985;28;20028;-65
2021/04/12 03:54:08;;;;;;;2.22;0.90;;;;;;;;;;5076652;28;20446;-64
2021/04/12 03:56:45;;;;;;;4.85;1.75;;;;;;;;;;5074365;28;20060;-64
2021/04/12 03:59:33;;;;;;;6.32;1.42;;;;;;;;;;5070788;28;20035;-64
2021/04/12 04:02:17;;;;;;;10.50;1.17;;;;;;;;;;5076775;28;20027;-65
2021/04/12 04:05:01;;;;;;;6.13;2.05;;;;;;;;;;5073677;28;20359;-64
2021/04/12 04:07:33;;;;;;;2.63;0.70;;;;;;;;;;5072252;28;20132;-65
2021/04/12 04:10:11;;;;;;;1.73;1.15;;;;;;;;;;5076440;28;20952;-64
2021/04/12 04:12:43;;;;;;;6.10;1.95;;;;;;;;;;5074410;28;20075;-65
2021/04/12 04:15:17;;;;;;;2.65;1.17;;;;;;;;;;5073072;28;20127;-64
2021/04/12 04:18:01;;;;;;;0.70;0.30;;;;;;;;;;5073772;28;20088;-64
2021/04/12 04:20:35;;;;;;;3.40;1.52;;;;;;;;;;5072902;28;20036;-65
2021/04/12 04:23:19;;;;;;;4.97;1.27;;;;;;;;;;5076545;28;20024;-65
2021/04/12 04:25:47;;;;;;;11.50;1.85;;;;;;;;;;5073834;28;20024;-65
2021/04/12 04:28:28;;;;;;;6.22;1.10;;;;;;;;;;5072397;28;20021;-65
2021/04/12 04:31:03;;;;;;;2.55;1.48;;;;;;;;;;5076999;28;20498;-64
2021/04/12 04:33:47;;;;;;;2.40;1.00;;;;;;;;;;5077857;28;20038;-64
2021/04/12 04:36:20;;;;;;;4.30;1.88;;;;;;;;;;5077033;28;20371;-66
2021/04/12 04:39:10;;;;;;;2.38;0.95;;;;;;;;;;5079289;28;20825;-65
2021/04/12 04:41:54;;;;;;;6.00;1.17;;;;;;;;;;5077438;28;20059;-63
2021/04/12 04:44:38;;;;;;;1.50;0.80;;;;;;;;;;5076998;28;20033;-64
2021/04/12 04:47:06;;;;;;;1.70;0.93;;;;;;;;;;5079851;28;20035;-63
2021/04/12 04:49:40;;;;;;;2.05;1.15;;;;;;;;;;5075234;28;20367;-64
2021/04/12 04:52:24;;;;;;;3.83;1.20;;;;;;;;;;5075997;28;20077;-63
2021/04/12 04:54:55;;;;;;;2.20;0.88;;;;;;;;;;5076874;28;20028;-65
2021/04/12 04:57:39;;;;;;;1.08;0.77;;;;;;;;;;5077806;28;20028;-64
2021/04/12 05:00:11;;;;;;;8.05;2.92;;;;;;;;;;5075642;28;20496;-64
2021/04/12 05:02:46;;;;;;;3.70;1.27;;;;;;;;;;5077293;28;20443;-64
2021/04/12 05:05:30;;;;;;;4.32;1.90;;;;;;;;;;5077014;28;20028;-64
2021/04/12 05:08:01;;;;;;;3.60;1.38;;;;;;;;;;5077989;28;20020;-64
2021/04/12 05:10:39;;;;;;;7.65;1.50;;;;;;;;;;5075367;28;20020;-64
2021/04/12 05:13:04;;;;;;;2.35;1.23;;;;;;;;;;5075397;28;20028;-64
2021/04/12 05:15:38;;;;;;;1.73;0.60;;;;;;;;;;5077159;28;20443;-64
2021/04/12 05:18:22;;;;;;;2.80;1.35;;;;;;;;;;5075161;28;20056;-64
2021/04/12 05:21:05;;;;;;;2.45;1.30;;;;;;;;;;5078450;28;20064;-64
2021/04/12 05:23:37;;;;;;;2.15;1.02;;;;;;;;;;5077014;28;20108;-64
2021/04/12 05:26:05;;;;;;;13.55;2.47;;;;;;;;;;5079029;28;20455;-64
2021/04/12 05:28:48;;;;;;;2.47;1.70;;;;;;;;;;5076617;28;20036;-64
2021/04/12 05:31:32;;;;;;;2.42;0.65;;;;;;;;;;5076721;28;20028;-64
2021/04/12 05:34:16;;;;;;;2.00;0.77;;;;;;;;;;5076858;28;20032;-64
2021/04/12 05:36:53;;;;;;;15.52;5.72;;;;;;;;;;5077504;28;20047;-64
2021/04/12 05:39:37;;;;;;;13.63;5.43;;;;;;;;;;5076553;28;20433;-64
2021/04/12 05:42:18;;;;;;;2.70;1.27;;;;;;;;;;5078369;28;20784;-64
2021/04/12 05:44:53;;;;;;;7.18;1.10;;;;;;;;;;5077450;28;20021;-64
2021/04/12 05:47:36;;;;;;;2.58;0.90;;;;;;;;;;5076632;28;20029;-65
2021/04/12 05:50:20;;;;;;;1.35;0.90;;;;;;;;;;5078510;28;20078;-64
2021/04/12 05:53:04;;;;;;;1.25;0.82;;;;;;;;;;5077104;28;20031;-65
2021/04/12 05:55:49;;;;;;;1.30;0.75;;;;;;;;;;5076218;28;20024;-65
2021/04/12 05:58:14;;;;;;;6.65;1.80;;;;;;;;;;5073558;28;20036;-65
2021/04/12 06:01:18;;;;;;;10.20;1.20;;;;;;;;;;5074457;28;20024;-65
2021/04/12 06:03:43;;;;;;;2.45;0.95;;;;;;;;;;4989088;28;20121;-65
2021/04/12 06:06:38;;;;;;;2.35;1.42;;;;;;;;;;4964332;28;20041;-65
2021/04/12 06:09:22;;;;;;;3.38;1.23;;;;;;;;;;5044228;28;20082;-65
2021/04/12 06:11:47;;;;;;;2.50;1.42;;;;;;;;;;5071872;28;20504;-65
2021/04/12 06:14:15;;;;;;;3.97;1.33;;;;;;;;;;5071601;28;20029;-64
2021/04/12 06:16:43;;;;;;;4.60;1.45;;;;;;;;;;5073174;28;20422;-64
2021/04/12 06:19:09;;;;;;;7.65;1.52;;;;;;;;;;5071552;28;20032;-65
2021/04/12 06:21:47;;;;;;;3.53;1.70;;;;;;;;;;5070793;28;20036;-65
2021/04/12 06:24:39;;;;;;;2.67;1.52;;;;;;;;;;5071838;28;20516;-65
2021/04/12 06:27:08;;;;;;;6.82;2.35;;;;;;;;;;5070594;28;20025;-64
2021/04/12 06:29:47;;;;;;;15.35;5.95;;;;;;;;;;5072324;28;20614;-64
2021/04/12 06:32:31;;;;;;;9.90;5.90;;;;;;;;;;5066113;28;20031;-65
2021/04/12 06:35:07;;;;;;;18.23;15.82;;;;;;;;;;5071692;28;20057;-65
2021/04/12 06:37:36;;;;;;;15.50;12.50;;;;;;;;;;5065701;28;20028;-65
2021/04/12 06:40:21;;;;;;;13.23;9.15;;;;;;;;;;5074630;28;20744;-64
2021/04/12 06:42:55;;;;;;;7.95;6.32;;;;;;;;;;5075510;28;20131;-64
2021/04/12 06:45:47;;;;;;;10.82;5.15;;;;;;;;;;5075588;28;20107;-64
2021/04/12 06:48:25;;;;;;;3.15;2.75;;;;;;;;;;5048551;28;20032;-64
2021/04/12 06:51:03;;;;;;;5.53;2.05;;;;;;;;;;5076781;28;20021;-64
2021/04/12 06:53:47;;;;;;;6.47;4.70;;;;;;;;;;5073353;28;20035;-63
2021/04/12 06:56:35;;;;;;;4.40;2.05;;;;;;;;;;5074345;28;20411;-61
2021/04/12 06:59:16;;;;;;;4.05;2.08;;;;;;;;;;5076723;28;20020;-61
2021/04/12 07:02:00;;;;;;;5.10;2.80;;;;;;;;;;5071049;28;20379;-60
2021/04/12 07:04:34;;;;;;;5.90;1.83;;;;;;;;;;5074962;28;20503;-60
2021/04/12 07:06:59;;;;;;;11.02;1.67;;;;;;;;;;5077472;28;20027;-60
2021/04/12 07:09:34;;;;;;;6.45;1.90;;;;;;;;;;5074984;28;20016;-61
2021/04/12 07:12:17;;;;;;;4.22;0.65;;;;;;;;;;5077281;28;20107;-61
2021/04/12 07:15:01;;;;;;;3.92;1.45;;;;;;;;;;5075349;28;20017;-62
2021/04/12 07:17:35;;;;;;;6.65;1.85;;;;;;;;;;5072573;28;20061;-63
2021/04/12 07:20:16;;;;;;;12.45;2.05;;;;;;;;;;5088032;28;20466;-61
2021/04/12 07:22:44;;;;;;;7.60;2.70;;;;;;;;;;5073902;28;20032;-63
2021/04/12 07:25:12;;;;;;;5.55;1.90;;;;;;;;;;5074108;28;20024;-62
2021/04/12 07:27:38;;;;;;;12.05;1.55;;;;;;;;;;5074881;28;20021;-63
2021/04/12 07:30:21;;;;;;;2.90;1.63;;;;;;;;;;5077372;28;20031;-58
2021/04/12 07:33:05;;;;;;;2.88;1.38;;;;;;;;;;5076484;28;20031;-57
2021/04/12 07:35:49;;;;;;;7.95;5.70;;;;;;;;;;5073349;28;20455;-58
2021/04/12 07:38:33;;;;;;;11.07;1.75;;;;;;;;;;5072212;28;20024;-58
2021/04/12 07:41:17;;;;;;;4.47;1.63;;;;;;;;;;5077622;28;20031;-59
2021/04/12 07:44:14;;;;;;;4.40;1.88;;;;;;;;;;5075621;28;20486;-59
2021/04/12 07:46:40;;;;;;;2.00;0.93;;;;;;;;;;5028406;28;20040;-59
2021/04/12 07:49:05;;;;;;;8.52;2.38;;;;;;;;;;5077177;28;20024;-60
2021/04/12 07:51:49;;;;;;;2.53;1.75;;;;;;;;;;5075307;28;20020;-65
2021/04/12 07:54:37;;;;;;;3.60;1.50;;;;;;;;;;5072268;28;20460;-65
2021/04/12 07:57:21;;;;;;;9.63;2.78;;;;;;;;;;5067938;28;20032;-65
2021/04/12 07:59:55;;;;;;;6.15;2.38;;;;;;;;;;5077144;28;20494;-63
2021/04/12 08:02:29;;;;;;;4.78;2.08;;;;;;;;;;5075776;28;20451;-63
2021/04/12 08:05:13;;;;;;;4.45;1.08;;;;;;;;;;5078175;28;20020;-63
2021/04/12 08:07:57;;;;;;;6.03;3.00;;;;;;;;;;5074574;28;20414;-63
2021/04/12 08:10:28;;;;;;;1.55;1.05;;;;;;;;;;5079025;28;20012;-65
2021/04/12 08:12:56;;;;;;;2.50;1.25;;;;;;;;;;5074978;28;20413;-64
2021/04/12 08:15:42;;;;;;;3.90;1.92;;;;;;;;;;5074837;28;20029;-64
2021/04/12 08:18:08;;;;;;;5.60;2.17;;;;;;;;;;5074556;28;20040;-64
2021/04/12 08:20:51;;;;;;;12.82;1.63;;;;;;;;;;5073851;28;20146;-64
2021/04/12 08:23:35;;;;;;;6.55;1.90;;;;;;;;;;5073887;28;20029;-64
2021/04/12 08:26:04;;;;;;;5.30;2.53;;;;;;;;;;5075613;28;20102;-64
2021/04/12 08:28:49;;;;;;;6.10;2.42;;;;;;;;;;5074424;28;20016;-64
2021/04/12 08:31:33;;;;;;;4.07;1.60;;;;;;;;;;5073276;28;20052;-64
2021/04/12 08:34:16;;;;;;;4.30;1.60;;;;;;;;;;5075115;28;20467;-64
2021/04/12 08:37:03;;;;;;;2.95;1.70;;;;;;;;;;5074598;28;20017;-64
2021/04/12 08:39:37;;;;;;;4.97;2.53;;;;;;;;;;5071642;28;20021;-63
2021/04/12 08:42:03;;;;;;;12.88;2.65;;;;;;;;;;5074079;28;20017;-67
2021/04/12 08:44:31;;;;;;;8.07;1.80;;;;;;;;;;5072369;28;20121;-66
2021/04/12 08:47:08;;;;;;;4.35;1.58;;;;;;;;;;5073394;28;20016;-66
2021/04/12 08:49:42;;;;;;;7.05;2.42;;;;;;;;;;5072071;28;20032;-67
2021/04/12 08:52:14;;;;;;;5.85;3.08;;;;;;;;;;5071686;28;20386;-66
2021/04/12 08:54:39;;;;;;;;;;;;;;;;;;5071591;28;20020;-67
2021/04/12 08:57:23;;;;;;;2.83;2.17;;;;;;;;;;5073976;28;19998;-61
2021/04/12 09:00:07;;;;;;;6.80;2.63;;;;;;;;;;5072221;28;20383;-61
2021/04/12 09:02:51;;;;;;;12.45;2.30;;;;;;;;;;5071183;28;20032;-61
2021/04/12 09:05:34;;;;;;;3.50;1.48;;;;;;;;;;5072299;28;20029;-61
2021/04/12 09:08:17;;;;;;;7.75;2.85;;;;;;;;;;5073254;28;20024;-60
2021/04/12 09:10:48;;;;;;;7.00;3.83;;;;;;;;;;5072370;28;20451;-61
2021/04/12 09:13:13;;;;;;;;;;;;;;;;;;5072391;28;20378;-60
2021/04/12 09:16:07;;;;;;;12.25;3.65;;;;;;;;;;5075009;28;19912;-60
2021/04/12 09:18:33;;;;;;;12.55;4.13;;;;;;;;;;5076680;28;20447;-61
2021/04/12 09:21:05;;;;;;;8.82;2.42;;;;;;;;;;5079578;28;20035;-60
2021/04/12 09:23:49;;;;;;;4.43;3.08;;;;;;;;;;5076541;28;20037;-60
2021/04/12 09:26:14;;;;;;;3.25;2.33;;;;;;;;;;5076804;28;20864;-61
2021/04/12 09:28:52;;;;;;;11.32;2.88;;;;;;;;;;5076983;28;20032;-60
2021/04/12 09:31:26;;;;;;;6.90;1.95;;;;;;;;;;5077617;28;20043;-62
2021/04/12 09:34:10;;;;;;;5.32;1.75;;;;;;;;;;5078932;28;20452;-61
2021/04/12 09:36:41;;;;;;;12.18;3.28;;;;;;;;;;5076839;28;20013;-61
2021/04/12 09:39:07;;;;;;;6.80;2.28;;;;;;;;;;5074889;28;20066;-61
2021/04/12 09:41:38;;;;;;;3.90;2.63;;;;;;;;;;5077199;28;20409;-60
2021/04/12 09:44:12;;;;;;;8.38;3.25;;;;;;;;;;5079115;28;20103;-61
2021/04/12 09:46:37;;;;;;;8.20;2.83;;;;;;;;;;5077088;28;20044;-60
2021/04/12 09:49:21;;;;;;;6.47;3.92;;;;;;;;;;5078559;28;20562;-61
2021/04/12 09:52:05;;;;;;;5.53;3.05;;;;;;;;;;5077520;28;20056;-60
2021/04/12 09:54:49;;;;;;;4.85;2.05;;;;;;;;;;5076329;28;20387;-61
2021/04/12 09:57:33;;;;;;;11.95;3.65;;;;;;;;;;5075894;28;20068;-60
2021/04/12 10:00:13;;;;;;;5.38;2.42;;;;;;;;;;5076533;28;20032;-61
2021/04/12 10:02:51;;;;;;;5.38;2.63;;;;;;;;;;5076362;28;20383;-62
2021/04/12 10:05:48;;;;;;;5.55;4.03;;;;;;;;;;5076778;28;20016;-61
2021/04/12 10:08:31;;;;;;;6.90;2.15;;;;;;;;;;5039829;28;20047;-61
2021/04/12 10:11:11;;;;;;;15.00;2.95;;;;;;;;;;5077685;28;20017;-61
2021/04/12 10:13:41;;;;;;;2.08;1.52;;;;;;;;;;5070564;28;20494;-61
2021/04/12 10:16:06;;;;;;;11.80;3.15;;;;;;;;;;5070884;28;20632;-61
2021/04/12 10:18:43;;;;;;;7.40;3.08;;;;;;;;;;5070130;28;20024;-61
2021/04/12 10:21:30;;;;;;;6.15;2.45;;;;;;;;;;5070986;28;20028;-61
2021/04/12 10:24:02;;;;;;;11.95;3.45;;;;;;;;;;5070801;28;20028;-61
2021/04/12 10:26:42;;;;;;;7.55;3.00;;;;;;;;;;5070897;28;20159;-61
2021/04/12 10:29:10;;;;;;;5.30;3.10;;;;;;;;;;5069479;28;20446;-61
2021/04/12 10:31:37;;;;;;;14.13;2.88;;;;;;;;;;5072625;28;20063;-61
2021/04/12 10:34:03;;;;;;;9.90;2.65;;;;;;;;;;5074733;28;20037;-61
2021/04/12 10:36:37;;;;;;;9.80;4.40;;;;;;;;;;5072971;28;20459;-61
2021/04/12 10:39:06;;;;;;;15.18;2.22;;;;;;;;;;5074493;28;20057;-62
2021/04/12 10:41:34;;;;;;;6.30;2.58;;;;;;;;;;5071164;28;20366;-61
2021/04/12 10:44:11;;;;;;;8.52;2.22;;;;;;;;;;5073667;28;20787;-62
2021/04/12 10:46:55;;;;;;;4.82;2.47;;;;;;;;;;5072931;28;20547;-60
2021/04/12 10:49:24;;;;;;;14.50;3.67;;;;;;;;;;5072130;28;20016;-60
2021/04/12 10:52:08;;;;;;;5.80;3.28;;;;;;;;;;5074105;28;20082;-62
2021/04/12 10:54:56;;;;;;;4.47;2.08;;;;;;;;;;5070234;28;20020;-60
2021/04/12 10:57:27;;;;;;;5.30;2.17;;;;;;;;;;5072342;28;20810;-60
2021/04/12 10:59:52;;;;;;;;;;;;;;;;;;5074594;28;20033;-60
2021/04/12 11:02:18;;;;;;;8.70;3.43;;;;;;;;;;5070797;28;19912;-60
2021/04/12 11:04:59;;;;;;;5.30;2.75;;;;;;;;;;5072778;28;20020;-60
2021/04/12 11:07:27;;;;;;;7.53;2.47;;;;;;;;;;5072434;28;20060;-61
2021/04/12 11:09:55;;;;;;;7.32;3.40;;;;;;;;;;5072158;28;20032;-60
2021/04/12 11:12:26;;;;;;;10.70;2.72;;;;;;;;;;5072169;28;20082;-60
2021/04/12 11:15:03;;;;;;;14.13;5.05;;;;;;;;;;5072928;28;20043;-60
2021/04/12 11:17:39;;;;;;;9.93;2.65;;;;;;;;;;5071786;28;20069;-60
2021/04/12 11:20:10;;;;;;;9.00;3.03;;;;;;;;;;5069781;28;20119;-60
2021/04/12 11:22:35;;;;;;;4.33;3.13;;;;;;;;;;5072137;28;20016;-60
2021/04/12 11:25:07;;;;;;;6.50;3.30;;;;;;;;;;5072633;28;20023;-60
2021/04/12 11:27:41;;;;;;;6.65;2.08;;;;;;;;;;5072043;28;20052;-61
2021/04/12 11:30:16;;;;;;;5.75;2.92;;;;;;;;;;5069837;28;20021;-60
2021/04/12 11:32:44;;;;;;;17.65;6.88;;;;;;;;;;5068842;28;20029;-60
2021/04/12 11:35:13;;;;;;;7.40;3.33;;;;;;;;;;5071038;28;20053;-60
2021/04/12 11:37:57;;;;;;;9.70;2.90;;;;;;;;;;5071180;28;20028;-61
2021/04/12 11:40:25;;;;;;;11.90;3.20;;;;;;;;;;5073252;28;20048;-60
2021/04/12 11:42:55;;;;;;;9.52;2.83;;;;;;;;;;5075472;28;20784;-60
2021/04/12 11:45:23;;;;;;;4.60;2.30;;;;;;;;;;5073414;28;20474;-60
2021/04/12 11:47:55;;;;;;;10.98;4.15;;;;;;;;;;5077299;28;20379;-60
2021/04/12 11:50:29;;;;;;;13.35;2.65;;;;;;;;;;5075692;28;20024;-59
2021/04/12 11:53:08;;;;;;;5.72;2.47;;;;;;;;;;5078240;28;20032;-59
2021/04/12 11:55:49;;;;;;;4.53;2.22;;;;;;;;;;5075676;28;20032;-59
2021/04/12 11:58:17;;;;;;;9.00;2.80;;;;;;;;;;5072547;28;20032;-59
2021/04/12 12:01:03;;;;;;;6.18;2.97;;;;;;;;;;5076192;28;20581;-59
2021/04/12 12:03:39;;;;;;;5.43;3.45;;;;;;;;;;5062044;28;20380;-59
2021/04/12 12:06:09;;;;;;;4.22;2.20;;;;;;;;;;5074204;28;20115;-61
2021/04/12 12:08:37;;;;;;;9.88;3.50;;;;;;;;;;5074912;28;20027;-60
2021/04/12 12:11:02;;;;;;;14.02;3.80;;;;;;;;;;5077545;28;20078;-60
2021/04/12 12:13:46;;;;;;;11.90;2.58;;;;;;;;;;5074802;28;20024;-60
2021/04/12 12:16:11;;;;;;;11.77;3.88;;;;;;;;;;5074313;28;20127;-60
2021/04/12 12:18:41;;;;;;;6.55;2.35;;;;;;;;;;5074586;28;20107;-60
2021/04/12 12:21:19;;;;;;;9.60;2.83;;;;;;;;;;5072035;28;20028;-60
2021/04/12 12:23:49;;;;;;;2.38;1.58;;;;;;;;;;5075014;28;20747;-61
2021/04/12 12:26:33;;;;;;;13.02;2.58;;;;;;;;;;5075343;28;20080;-60
2021/04/12 12:29:06;;;;;;;8.30;3.83;;;;;;;;;;5077148;28;20029;-60
2021/04/12 12:31:34;;;;;;;7.30;3.13;;;;;;;;;;5073016;28;20451;-61
2021/04/12 12:34:18;;;;;;;8.32;3.13;;;;;;;;;;5072305;28;20396;-61
2021/04/12 12:36:46;;;;;;;9.23;2.13;;;;;;;;;;5073689;28;20021;-61
2021/04/12 12:39:23;;;;;;;5.13;1.50;;;;;;;;;;5074929;28;20024;-61
2021/04/12 12:41:49;;;;;;;5.38;2.38;;;;;;;;;;5074394;28;20060;-61
2021/04/12 12:44:18;;;;;;;7.45;3.08;;;;;;;;;;5072632;28;20063;-60
2021/04/12 12:46:44;;;;;;;13.70;2.85;;;;;;;;;;5068627;28;20080;-64
2021/04/12 12:49:17;;;;;;;6.60;1.20;;;;;;;;;;5073260;28;20023;-64
2021/04/12 12:52:03;;;;;;;3.33;1.58;;;;;;;;;;5072731;28;20025;-64
2021/04/12 12:54:28;;;;;;;14.85;3.83;;;;;;;;;;5071744;28;20082;-64
2021/04/12 12:57:01;;;;;;;10.82;2.53;;;;;;;;;;5072839;28;20024;-64
2021/04/12 12:59:27;;;;;;;4.70;2.70;;;;;;;;;;5073205;28;20479;-64
2021/04/12 13:01:53;;;;;;;11.05;2.75;;;;;;;;;;5073097;28;20028;-65
2021/04/12 13:04:20;;;;;;;18.50;5.40;;;;;;;;;;5073431;28;20024;-64
2021/04/12 13:06:48;;;;;;;6.65;3.65;;;;;;;;;;5071647;28;20032;-64
2021/04/12 13:09:31;;;;;;;6.50;4.68;;;;;;;;;;5074447;28;20113;-64
2021/04/12 13:11:56;;;;;;;7.25;3.85;;;;;;;;;;5077933;28;20078;-64
2021/04/12 13:14:34;;;;;;;2.47;1.13;;;;;;;;;;5072718;28;20070;-64
2021/04/12 13:17:00;;;;;;;12.77;3.47;;;;;;;;;;5076007;28;20044;-64
2021/04/12 13:19:26;;;;;;;8.25;2.40;;;;;;;;;;5071180;28;20055;-64
2021/04/12 13:21:58;;;;;;;5.55;2.15;;;;;;;;;;5071922;28;20052;-64
2021/04/12 13:24:23;;;;;;;5.65;3.10;;;;;;;;;;5070367;28;20087;-63
2021/04/12 13:27:10;;;;;;;8.55;2.33;;;;;;;;;;5071447;28;20100;-64
2021/04/12 13:29:43;;;;;;;8.48;3.60;;;;;;;;;;5069874;28;20029;-65
2021/04/12 13:32:17;;;;;;;16.15;6.05;;;;;;;;;;5069821;28;20028;-63
2021/04/12 13:34:58;;;;;;;5.00;2.30;;;;;;;;;;5070615;28;20020;-64
2021/04/12 13:37:35;;;;;;;6.03;3.20;;;;;;;;;;5068737;28;20024;-64
2021/04/12 13:40:19;;;;;;;11.10;3.05;;;;;;;;;;5072358;28;20028;-64
2021/04/12 13:42:50;;;;;;;2.85;1.25;;;;;;;;;;5071834;28;20020;-64
2021/04/12 13:45:23;;;;;;;9.82;2.78;;;;;;;;;;5071837;28;20064;-64
2021/04/12 13:47:50;;;;;;;6.45;2.20;;;;;;;;;;5073302;28;20028;-64
2021/04/12 13:50:20;;;;;;;3.85;1.30;;;;;;;;;;5073654;28;20035;-64
2021/04/12 13:53:04;;;;;;;9.77;3.80;;;;;;;;;;5071312;28;20082;-64
2021/04/12 13:55:35;;;;;;;9.90;4.53;;;;;;;;;;5070150;28;20031;-64
2021/04/12 13:58:10;;;;;;;15.40;5.22;;;;;;;;;;5071044;28;20023;-64
2021/04/12 14:00:41;;;;;;;4.90;2.72;;;;;;;;;;5070838;28;20036;-65
2021/04/12 14:03:07;;;;;;;;;;;;;;;;;;5069379;28;20008;-64
2021/04/12 14:05:34;;;;;;;4.10;2.50;;;;;;;;;;5070525;28;19946;-65
2021/04/12 14:08:22;;;;;;;6.32;2.63;;;;;;;;;;5070335;28;20436;-66
2021/04/12 14:11:11;;;;;;;5.10;2.30;;;;;;;;;;5070175;28;20364;-65
2021/04/12 14:13:39;;;;;;;3.47;2.33;;;;;;;;;;5071675;28;20020;-64
2021/04/12 14:16:04;;;;;;;13.93;3.67;;;;;;;;;;5069454;28;20093;-64
2021/04/12 14:18:41;;;;;;;8.18;2.90;;;;;;;;;;5072431;28;20095;-64
2021/04/12 14:21:10;;;;;;;10.35;3.55;;;;;;;;;;5068497;28;20031;-64
2021/04/12 14:23:44;;;;;;;14.25;3.05;;;;;;;;;;5074774;28;20043;-64
2021/04/12 14:26:12;;;;;;;2.38;0.95;;;;;;;;;;5074609;28;20035;-64
2021/04/12 14:28:46;;;;;;;10.32;2.25;;;;;;;;;;5075521;28;20027;-64
2021/04/12 14:31:37;;;;;;;5.38;2.10;;;;;;;;;;5069329;28;20651;-67
2021/04/12 14:34:02;;;;;;;5.68;2.95;;;;;;;;;;5067929;28;20040;-67
2021/04/12 14:36:29;;;;;;;13.65;3.22;;;;;;;;;;5072042;28;20333;-66
2021/04/12 14:39:06;;;;;;;6.13;2.15;;;;;;;;;;5077667;28;20042;-66
2021/04/12 14:41:33;;;;;;;8.77;1.85;;;;;;;;;;5075696;28;20119;-67
2021/04/12 14:44:08;;;;;;;12.73;3.17;;;;;;;;;;5073992;28;20580;-66
2021/04/12 14:46:47;;;;;;;9.77;2.42;;;;;;;;;;5072028;28;20033;-68
2021/04/12 14:49:13;;;;;;;3.05;1.40;;;;;;;;;;5075205;28;20016;-68
2021/04/12 14:51:59;;;;;;;5.80;2.65;;;;;;;;;;5075301;28;20420;-68
2021/04/12 14:54:27;;;;;;;5.40;1.77;;;;;;;;;;5069959;28;20024;-69
2021/04/12 14:57:04;;;;;;;9.07;2.28;;;;;;;;;;5070387;28;20024;-68
2021/04/12 14:59:31;;;;;;;5.55;2.53;;;;;;;;;;5074308;28;20021;-68
2021/04/12 15:01:57;;;;;;;5.32;2.00;;;;;;;;;;5074855;28;20120;-68
2021/04/12 15:04:25;;;;;;;10.25;3.35;;;;;;;;;;5070252;28;20024;-68
2021/04/12 15:07:07;;;;;;;6.70;2.55;;;;;;;;;;5069400;28;20029;-67
2021/04/12 15:09:34;;;;;;;15.07;3.38;;;;;;;;;;5067936;28;20024;-67
2021/04/12 15:11:59;;;;;;;8.85;2.97;;;;;;;;;;5070295;28;20028;-67
2021/04/12 15:14:24;;;;;;;4.45;1.83;;;;;;;;;;5069338;28;20024;-67
2021/04/12 15:16:53;;;;;;;8.23;1.85;;;;;;;;;;5071755;28;20056;-67
2021/04/12 15:19:27;;;;;;;4.75;1.67;;;;;;;;;;5074966;28;20020;-67
2021/04/12 15:21:55;;;;;;;9.85;3.17;;;;;;;;;;5075345;28;20037;-67
2021/04/12 15:24:26;;;;;;;6.63;3.25;;;;;;;;;;5074799;28;20025;-63
2021/04/12 15:26:58;;;;;;;12.95;3.92;;;;;;;;;;5076512;28;20028;-64
2021/04/12 15:29:41;;;;;;;8.05;3.15;;;;;;;;;;5074414;28;20077;-65
2021/04/12 15:32:06;;;;;;;7.63;2.15;;;;;;;;;;5072757;28;20110;-64
2021/04/12 15:34:32;;;;;;;8.50;4.20;;;;;;;;;;5074634;28;20092;-64
2021/04/12 15:36:59;;;;;;;9.73;4.20;;;;;;;;;;5076921;28;20032;-64